Time;durP1;ratioP1;P1;durP2;ratioP2;P2;SDS_P1;SDS_P2;PMS_P1;PMS_P2;Temp;Humidity;BMP_temperature;BMP_pressure;BME280_temperature;BME280_humidity;BME280_pressure;Samples;Min_cycle;Max_cycle;Signal;HPM_P1;HPM_P2
2023/02/07 00:04:52;;;;;;;1.30;0.70;;;;;;;4.68;65.35;102570.47;10238440;28;20379;-60
2023/02/07 00:09:55;;;;;;;1.25;0.80;;;;;;;4.45;65.59;102577.00;10246746;28;20728;-61
2023/02/07 00:14:57;;;;;;;1.50;0.70;;;;;;;4.34;65.89;102585.56;10249929;28;20075;-60
2023/02/07 00:19:58;;;;;;;2.03;0.88;;;;;;;4.32;65.47;102581.25;10245227;28;20054;-61
2023/02/07 00:25:00;;;;;;;1.50;0.60;;;;;;;4.28;65.84;102591.19;10256394;28;20324;-61
2023/02/07 00:30:01;;;;;;;2.25;0.80;;;;;;;4.40;65.63;102595.00;10250163;28;20131;-60
2023/02/07 00:35:03;;;;;;;1.75;1.00;;;;;;;4.41;65.80;102585.25;10248868;28;20574;-61
2023/02/07 00:40:05;;;;;;;0.80;0.68;;;;;;;4.33;65.69;102582.97;10239045;28;20063;-61
2023/02/07 00:45:07;;;;;;;1.80;0.63;;;;;;;4.32;65.73;102582.09;10239012;28;20435;-60
2023/02/07 00:50:08;;;;;;;1.42;0.80;;;;;;;4.36;65.67;102580.13;10244575;28;20537;-60
2023/02/07 00:55:09;;;;;;;1.25;0.68;;;;;;;4.36;65.72;102582.81;10243979;28;20063;-60
2023/02/07 01:00:11;;;;;;;1.13;0.63;;;;;;;4.39;65.32;102574.66;10248710;28;20522;-60
2023/02/07 01:05:13;;;;;;;1.70;0.68;;;;;;;4.53;65.38;102574.78;10249228;28;20047;-60
2023/02/07 01:10:14;;;;;;;1.00;0.70;;;;;;;4.51;65.13;102573.16;10253869;28;20112;-60
2023/02/07 01:15:16;;;;;;;1.05;0.70;;;;;;;4.57;65.07;102567.50;10255576;28;20074;-60
2023/02/07 01:20:17;;;;;;;1.45;0.75;;;;;;;4.49;65.41;102567.06;10251498;28;20505;-61
2023/02/07 01:25:19;;;;;;;1.58;0.65;;;;;;;4.33;65.12;102573.19;10236546;28;20052;-62
2023/02/07 01:30:21;;;;;;;1.67;0.68;;;;;;;4.23;65.35;102579.06;10245742;28;20052;-61
2023/02/07 01:35:22;;;;;;;1.25;0.82;;;;;;;4.13;65.45;102574.22;10241705;28;20487;-61
2023/02/07 01:40:26;;;;;;;1.90;0.60;;;;;;;4.06;65.34;102580.78;10248701;28;20121;-61
2023/02/07 01:45:33;;;;;;;1.27;0.68;;;;;;;3.94;65.67;102574.28;10249569;28;20055;-60
2023/02/07 01:50:36;;;;;;;;;;;;;;;3.89;66.05;102578.09;10246016;28;20491;-60
2023/02/07 01:55:39;;;;;;;1.60;0.82;;;;;;;3.92;65.78;102575.31;10252395;28;20211;-60
2023/02/07 02:00:42;;;;;;;1.45;0.80;;;;;;;3.96;66.03;102585.72;10248625;28;20062;-61
2023/02/07 02:05:46;;;;;;;2.70;0.82;;;;;;;3.94;65.83;102570.78;10254931;28;20552;-62
2023/02/07 02:11:01;;;;;;;1.42;0.95;;;;;;;3.98;65.86;102575.84;10248881;28;20044;-58
2023/02/07 02:16:19;;;;;;;4.15;1.08;;;;;;;3.87;65.87;102580.88;10256087;28;20783;-59
2023/02/07 02:21:58;;;;;;;1.45;0.77;;;;;;;3.70;66.07;102581.69;10253484;28;20058;-59
2023/02/07 02:27:12;;;;;;;2.67;1.00;;;;;;;3.64;65.87;102586.47;10256815;28;20054;-60
2023/02/07 02:32:35;;;;;;;1.83;1.35;;;;;;;3.56;65.83;102585.03;10259419;28;20055;-59
2023/02/07 02:37:48;;;;;;;3.60;1.52;;;;;;;3.41;65.87;102583.13;10229601;28;20047;-58
2023/02/07 02:42:57;;;;;;;1.10;0.77;;;;;;;3.33;66.08;102586.16;10247353;28;20807;-59
2023/02/07 02:48:01;;;;;;;2.65;1.00;;;;;;;3.30;66.35;102583.66;10255979;28;20102;-61
2023/02/07 02:53:02;;;;;;;1.23;1.02;;;;;;;3.28;65.96;102582.88;10257211;28;20087;-58
2023/02/07 02:58:20;;;;;;;1.95;1.20;;;;;;;3.21;65.62;102578.78;10256196;28;20043;-57
2023/02/07 03:03:35;;;;;;;2.08;1.23;;;;;;;3.20;66.43;102595.66;10263085;28;20055;-59
2023/02/07 03:08:46;;;;;;;2.92;1.33;;;;;;;3.13;65.90;102584.44;10263350;28;20043;-60
2023/02/07 03:13:57;;;;;;;2.65;1.20;;;;;;;3.00;66.35;102569.16;10251441;28;20066;-59
2023/02/07 03:19:10;;;;;;;3.15;1.70;;;;;;;2.91;66.09;102568.66;10262842;28;20095;-59
2023/02/07 03:24:26;;;;;;;3.10;1.95;;;;;;;2.86;66.34;102561.81;10248246;28;20554;-60
2023/02/07 03:29:31;;;;;;;2.53;1.50;;;;;;;2.77;66.31;102563.13;10252706;28;20054;-58
2023/02/07 03:34:57;;;;;;;3.40;1.48;;;;;;;2.74;66.44;102563.25;10255995;28;20044;-60
2023/02/07 03:39:59;;;;;;;2.50;1.40;;;;;;;2.70;66.77;102569.63;10259745;28;20047;-59
2023/02/07 03:45:01;;;;;;;2.97;1.70;;;;;;;2.60;66.83;102563.03;10261314;28;20047;-60
2023/02/07 03:50:03;;;;;;;3.45;1.73;;;;;;;2.54;66.78;102567.66;10260848;28;20544;-59
2023/02/07 03:55:05;;;;;;;3.40;2.10;;;;;;;2.56;67.28;102570.25;10261666;28;20099;-59
2023/02/07 04:00:09;;;;;;;3.80;1.95;;;;;;;2.57;66.53;102559.56;10265431;28;20055;-59
2023/02/07 04:05:11;;;;;;;4.18;3.05;;;;;;;2.52;67.01;102558.91;10267293;28;20118;-59
2023/02/07 04:10:12;;;;;;;5.78;2.35;;;;;;;2.42;67.19;102565.56;10262444;28;20039;-59
2023/02/07 04:15:14;;;;;;;3.45;2.45;;;;;;;2.35;67.62;102567.63;10269300;28;20059;-58
2023/02/07 04:20:15;;;;;;;5.35;3.10;;;;;;;2.37;66.86;102562.28;10263141;28;20129;-58
2023/02/07 04:25:17;;;;;;;6.10;3.35;;;;;;;2.35;67.41;102574.72;10259617;28;20055;-62
2023/02/07 04:30:19;;;;;;;7.43;3.33;;;;;;;2.34;67.05;102583.63;10262643;28;20111;-61
2023/02/07 04:35:20;;;;;;;4.65;3.03;;;;;;;2.33;66.91;102580.13;10264619;28;20119;-60
2023/02/07 04:40:21;;;;;;;7.97;4.65;;;;;;;2.28;66.87;102582.09;10260807;28;20058;-59
2023/02/07 04:45:23;;;;;;;9.57;4.38;;;;;;;2.23;67.07;102570.81;10267343;28;20055;-59
2023/02/07 04:50:24;;;;;;;7.40;4.32;;;;;;;2.20;66.93;102583.38;10266004;28;20066;-59
2023/02/07 04:55:25;;;;;;;9.45;5.15;;;;;;;2.15;67.53;102576.47;10260978;28;20047;-58
2023/02/07 05:00:27;;;;;;;7.90;4.47;;;;;;;2.11;67.12;102574.88;10261620;28;20051;-59
2023/02/07 05:05:28;;;;;;;10.20;5.38;;;;;;;2.06;66.83;102581.31;10262220;28;20043;-60
2023/02/07 05:10:30;;;;;;;9.07;5.07;;;;;;;2.01;67.49;102589.44;10265741;28;20535;-58
2023/02/07 05:15:31;;;;;;;8.13;4.63;;;;;;;2.00;67.22;102594.84;10260629;28;20056;-61
2023/02/07 05:20:33;;;;;;;7.25;4.22;;;;;;;1.96;67.82;102597.59;10244863;28;20117;-60
2023/02/07 05:25:34;;;;;;;10.60;5.47;;;;;;;1.92;67.72;102581.91;10251483;28;20047;-60
2023/02/07 05:30:36;;;;;;;7.25;4.13;;;;;;;1.88;67.07;102590.91;10252983;28;20085;-59
2023/02/07 05:35:40;;;;;;;9.48;5.28;;;;;;;1.88;67.41;102599.72;10253220;28;20071;-59
2023/02/07 05:40:42;;;;;;;11.02;4.63;;;;;;;1.86;67.84;102592.75;10255338;28;20055;-58
2023/02/07 05:45:44;;;;;;;11.45;5.65;;;;;;;1.86;66.78;102598.06;10257516;28;20051;-59
2023/02/07 05:50:46;;;;;;;12.98;8.48;;;;;;;1.79;67.20;102592.13;10247409;28;20070;-58
2023/02/07 05:55:51;;;;;;;10.05;6.03;;;;;;;1.74;67.70;102602.94;10256542;28;20051;-57
2023/02/07 06:00:54;;;;;;;10.57;6.13;;;;;;;1.71;67.02;102604.84;10239733;28;20047;-58
2023/02/07 06:05:55;;;;;;;15.43;5.55;;;;;;;1.67;67.61;102609.41;10231252;28;20442;-59
2023/02/07 06:10:57;;;;;;;9.10;5.25;;;;;;;1.61;68.21;102614.09;10249760;28;20059;-59
2023/02/07 06:15:58;;;;;;;10.93;6.35;;;;;;;1.57;67.74;102613.38;10239161;28;20075;-59
2023/02/07 06:21:00;;;;;;;10.85;5.75;;;;;;;1.56;67.57;102609.84;10251551;28;20047;-60
2023/02/07 06:26:01;;;;;;;12.10;6.32;;;;;;;1.52;67.58;102621.50;10241971;28;20051;-59
2023/02/07 06:31:03;;;;;;;10.98;5.55;;;;;;;1.52;68.25;102624.16;10257343;28;20057;-59
2023/02/07 06:36:05;;;;;;;11.00;6.35;;;;;;;1.54;68.14;102635.56;10260547;28;20042;-64
2023/02/07 06:41:09;;;;;;;11.90;6.45;;;;;;;1.54;68.02;102642.63;10293848;28;20063;-65
2023/02/07 06:46:11;;;;;;;11.32;6.05;;;;;;;1.51;67.70;102646.28;10296736;28;20051;-64
2023/02/07 06:51:12;;;;;;;64.32;9.60;;;;;;;1.51;67.61;102661.31;10280425;28;20078;-64
2023/02/07 06:56:14;;;;;;;14.82;7.05;;;;;;;1.54;67.99;102671.78;10286861;28;20136;-64
2023/02/07 07:01:18;;;;;;;15.63;7.40;;;;;;;1.56;67.26;102669.94;10265115;28;20114;-65
2023/02/07 07:06:20;;;;;;;14.15;6.88;;;;;;;1.56;68.05;102696.44;10276570;28;20059;-64
2023/02/07 07:11:22;;;;;;;15.02;7.10;;;;;;;1.60;67.53;102700.72;10278396;28;20054;-64
2023/02/07 07:16:23;;;;;;;12.68;7.10;;;;;;;1.60;68.05;102713.97;10282080;28;20142;-65
2023/02/07 07:21:26;;;;;;;19.88;8.27;;;;;;;1.62;67.95;102720.09;10287623;28;20592;-66
2023/02/07 07:26:27;;;;;;;15.00;7.10;;;;;;;1.63;67.77;102724.44;10283248;28;20058;-66
2023/02/07 07:31:47;;;;;;;13.75;7.45;;;;;;;1.63;68.03;102728.91;10291897;28;20101;-66
2023/02/07 07:36:48;;;;;;;13.50;7.47;;;;;;;1.65;68.45;102729.69;10283754;28;20039;-63
2023/02/07 07:41:50;;;;;;;13.27;7.28;;;;;;;1.69;68.61;102728.66;10286869;28;20043;-65
2023/02/07 07:46:51;;;;;;;12.95;6.93;;;;;;;1.72;68.34;102733.84;10281855;28;20057;-66
2023/02/07 07:51:53;;;;;;;13.90;7.38;;;;;;;1.75;67.72;102725.75;10295429;28;20039;-66
2023/02/07 07:56:54;;;;;;;15.20;7.93;;;;;;;1.75;67.88;102733.72;10298822;28;20032;-65
2023/02/07 08:01:56;;;;;;;23.38;8.15;;;;;;;1.78;68.81;102733.59;10296535;28;20054;-65
2023/02/07 08:06:59;;;;;;;13.32;7.22;;;;;;;1.84;68.23;102743.97;10295968;28;20054;-66
2023/02/07 08:12:00;;;;;;;17.25;8.02;;;;;;;2.00;68.44;102738.06;10300862;28;20039;-65
2023/02/07 08:17:02;;;;;;;16.35;7.70;;;;;;;2.08;68.25;102739.47;10301950;28;20051;-64
2023/02/07 08:22:03;;;;;;;19.92;7.60;;;;;;;2.11;68.19;102738.47;10299474;28;20051;-65
2023/02/07 08:27:04;;;;;;;15.57;7.75;;;;;;;2.16;67.84;102741.81;10276165;28;20043;-64
2023/02/07 08:32:06;;;;;;;15.70;7.07;;;;;;;2.22;67.96;102746.03;10298317;28;20107;-64
2023/02/07 08:37:08;;;;;;;15.80;8.02;;;;;;;2.30;67.08;102741.25;10283308;28;20087;-63
2023/02/07 08:42:10;;;;;;;15.93;8.40;;;;;;;2.36;67.53;102743.66;10279534;28;20051;-62
2023/02/07 08:47:11;;;;;;;15.55;7.88;;;;;;;2.43;67.50;102750.44;10292595;28;20027;-63
2023/02/07 08:52:13;;;;;;;15.32;8.82;;;;;;;2.53;67.16;102738.50;10268749;28;20055;-63
2023/02/07 08:57:15;;;;;;;19.58;8.18;;;;;;;2.59;66.91;102745.34;10295329;28;20077;-63
2023/02/07 09:02:16;;;;;;;16.67;8.57;;;;;;;2.64;66.98;102746.00;10297863;28;20055;-64
2023/02/07 09:07:18;;;;;;;14.35;7.35;;;;;;;2.68;66.34;102744.09;10294703;28;20047;-64
2023/02/07 09:12:20;;;;;;;14.40;8.02;;;;;;;2.78;66.30;102740.09;10291138;28;20058;-64
2023/02/07 09:17:21;;;;;;;15.30;8.13;;;;;;;2.93;65.83;102735.94;10307560;28;20054;-65
2023/02/07 09:22:23;;;;;;;13.63;6.95;;;;;;;3.00;65.73;102732.06;10272278;28;20058;-64
2023/02/07 09:27:24;;;;;;;14.05;8.25;;;;;;;3.08;65.36;102732.63;10295311;28;20054;-64
2023/02/07 09:32:26;;;;;;;14.10;8.00;;;;;;;3.16;65.79;102726.97;10298369;28;20042;-65
2023/02/07 09:37:27;;;;;;;18.98;9.88;;;;;;;3.33;64.83;102712.88;10289419;28;20042;-65
2023/02/07 09:42:39;;;;;;;15.23;8.02;;;;;;;3.43;64.91;102697.38;10276051;28;20039;-65
2023/02/07 09:47:42;;;;;;;15.07;8.43;;;;;;;3.51;65.09;102711.16;10279666;28;20039;-65
2023/02/07 09:52:48;;;;;;;16.25;8.95;;;;;;;3.63;64.66;102712.38;10283823;28;20046;-64
2023/02/07 09:58:05;;;;;;;20.98;8.55;;;;;;;3.80;63.87;102715.13;10284600;28;20051;-65
2023/02/07 10:03:17;;;;;;;13.93;7.95;;;;;;;3.86;64.22;102722.81;10282216;28;20056;-64
2023/02/07 10:08:19;;;;;;;15.73;8.60;;;;;;;4.01;63.74;102729.19;10281517;28;20118;-65
2023/02/07 10:13:47;;;;;;;14.35;7.65;;;;;;;4.13;63.76;102723.28;10281374;28;20080;-65
2023/02/07 10:18:57;;;;;;;18.83;9.20;;;;;;;4.24;63.19;102713.88;10276600;28;20050;-64
2023/02/07 10:24:34;;;;;;;22.77;10.60;;;;;;;4.23;63.04;102704.19;10288040;28;20031;-63
2023/02/07 10:29:55;;;;;;;14.60;7.22;;;;;;;4.35;62.51;102703.56;10291126;28;20054;-65
2023/02/07 10:35:01;;;;;;;12.13;6.53;;;;;;;4.39;62.00;102713.13;10291843;28;20031;-64
2023/02/07 10:40:14;;;;;;;14.30;7.38;;;;;;;4.48;61.81;102703.78;10281672;28;20042;-63
2023/02/07 10:45:16;;;;;;;12.18;6.63;;;;;;;4.49;61.71;102701.06;10277307;28;20067;-64
2023/02/07 10:50:20;;;;;;;22.77;7.70;;;;;;;4.58;60.67;102686.41;10281049;28;20055;-64
2023/02/07 10:55:45;;;;;;;15.10;7.03;;;;;;;4.61;60.46;102680.94;10290077;28;20051;-65
2023/02/07 11:00:49;;;;;;;12.35;6.13;;;;;;;4.75;60.26;102689.06;10281653;28;20118;-64
2023/02/07 11:05:54;;;;;;;15.07;7.18;;;;;;;4.82;59.91;102694.94;10279732;28;20073;-62
2023/02/07 11:10:58;;;;;;;17.33;7.68;;;;;;;4.91;59.71;102691.78;10281407;28;20102;-64
2023/02/07 11:16:02;;;;;;;10.70;6.03;;;;;;;5.01;59.27;102689.47;10254765;28;20262;-63
2023/02/07 11:21:24;;;;;;;14.90;8.02;;;;;;;5.03;59.33;102679.59;10280944;28;20055;-64
2023/02/07 11:26:25;;;;;;;12.30;6.63;;;;;;;5.19;58.49;102676.13;10272974;28;20035;-64
2023/02/07 11:31:33;;;;;;;15.70;6.95;;;;;;;5.22;58.37;102665.28;10282636;28;20119;-63
2023/02/07 11:36:35;;;;;;;;;;;;;;;5.15;59.10;102667.41;10279475;28;20099;-64
2023/02/07 11:41:37;;;;;;;12.68;6.57;;;;;;;5.24;58.98;102674.06;10292041;28;19921;-65
2023/02/07 11:46:42;;;;;;;13.75;7.18;;;;;;;5.33;58.67;102668.22;10288300;28;20110;-63
2023/02/07 11:51:43;;;;;;;12.63;7.05;;;;;;;5.26;58.21;102670.38;10292211;28;20082;-63
2023/02/07 11:56:59;;;;;;;14.70;6.65;;;;;;;5.31;57.45;102670.09;10290781;28;20046;-63
2023/02/07 12:02:15;;;;;;;13.43;7.80;;;;;;;5.37;56.98;102669.75;10263511;28;20050;-64
2023/02/07 12:07:28;;;;;;;17.85;7.72;;;;;;;5.47;57.43;102657.66;10287666;28;20055;-64
2023/02/07 12:12:43;;;;;;;12.30;6.40;;;;;;;5.56;56.68;102662.47;10276328;28;20062;-62
2023/02/07 12:17:51;;;;;;;13.00;7.18;;;;;;;5.69;56.57;102651.97;10286769;28;20055;-64
2023/02/07 12:23:04;;;;;;;11.63;5.47;;;;;;;5.78;56.06;102647.06;10251985;28;20055;-64
2023/02/07 12:28:57;;;;;;;11.77;6.25;;;;;;;5.87;55.57;102638.53;10294840;28;20071;-63
2023/02/07 12:34:29;;;;;;;12.15;5.70;;;;;;;5.89;55.79;102636.63;10270055;28;20091;-64
2023/02/07 12:39:43;;;;;;;9.55;5.43;;;;;;;5.82;55.56;102621.91;10266295;28;20052;-62
2023/02/07 12:44:59;;;;;;;15.85;7.10;;;;;;;5.95;54.75;102620.28;10289228;28;20047;-62
2023/02/07 12:50:20;;;;;;;14.90;6.97;;;;;;;5.95;55.06;102621.13;10282126;28;20082;-62
2023/02/07 12:55:46;;;;;;;12.13;6.82;;;;;;;6.14;55.36;102612.91;10273406;28;20056;-62
2023/02/07 13:00:56;;;;;;;11.73;5.82;;;;;;;6.19;54.81;102609.97;10270627;28;20062;-65
2023/02/07 13:06:37;;;;;;;10.82;6.47;;;;;;;6.27;54.49;102599.69;10278735;28;20110;-64
2023/02/07 13:12:06;;;;;;;10.20;5.93;;;;;;;6.26;54.36;102599.75;10293852;28;20048;-63
2023/02/07 13:17:40;;;;;;;11.57;6.38;;;;;;;6.26;54.24;102599.75;10289499;28;20143;-63
2023/02/07 13:22:50;;;;;;;10.93;6.05;;;;;;;6.27;54.71;102599.69;10288980;28;20043;-64
2023/02/07 13:27:56;;;;;;;10.85;5.85;;;;;;;6.32;54.05;102599.41;10281367;28;20063;-63
2023/02/07 13:33:17;;;;;;;9.75;5.85;;;;;;;6.33;53.49;102601.97;10269662;28;20049;-64
2023/02/07 13:38:33;;;;;;;10.75;6.07;;;;;;;6.39;53.41;102599.91;10292197;28;20196;-65
2023/02/07 13:43:57;;;;;;;13.05;6.40;;;;;;;6.41;52.98;102598.84;10284817;28;20560;-65
2023/02/07 13:49:28;;;;;;;12.93;6.53;;;;;;;6.33;53.47;102591.28;10273318;28;20051;-62
2023/02/07 13:54:42;;;;;;;11.18;5.35;;;;;;;6.44;53.44;102587.97;10275511;28;20046;-63
2023/02/07 14:00:14;;;;;;;10.13;5.50;;;;;;;6.61;53.34;102584.25;10280324;28;20047;-64
2023/02/07 14:05:20;;;;;;;13.40;5.68;;;;;;;6.63;52.96;102586.84;10288019;28;20055;-63
2023/02/07 14:10:53;;;;;;;11.00;6.10;;;;;;;6.59;52.41;102579.97;10274191;28;20044;-63
2023/02/07 14:15:56;;;;;;;8.00;4.75;;;;;;;6.61;53.09;102581.59;10282092;28;20091;-64
2023/02/07 14:21:20;;;;;;;9.18;4.95;;;;;;;6.56;51.75;102589.03;10282366;28;20227;-64
2023/02/07 14:26:37;;;;;;;13.38;5.68;;;;;;;6.53;52.27;102592.75;10247549;28;20063;-65
2023/02/07 14:31:46;;;;;;;11.75;6.05;;;;;;;6.56;52.14;102583.69;10282613;28;20051;-64
2023/02/07 14:36:48;;;;;;;11.82;5.95;;;;;;;6.61;51.89;102578.06;10269995;28;20079;-65
2023/02/07 14:41:51;;;;;;;9.13;5.30;;;;;;;6.63;51.20;102576.16;10267623;28;20055;-64
2023/02/07 14:46:56;;;;;;;10.27;5.88;;;;;;;6.71;51.17;102584.53;10269724;28;20063;-63
2023/02/07 14:52:02;;;;;;;8.23;4.75;;;;;;;6.60;50.80;102571.00;10272423;28;20059;-63
2023/02/07 14:57:18;;;;;;;14.13;5.20;;;;;;;6.58;50.26;102579.13;10260894;28;20073;-63
2023/02/07 15:02:25;;;;;;;7.35;4.03;;;;;;;6.53;50.63;102581.19;10273623;28;20059;-64
2023/02/07 15:07:27;;;;;;;10.18;4.93;;;;;;;6.57;50.33;102581.88;10276160;28;20107;-63
2023/02/07 15:12:30;;;;;;;9.25;5.07;;;;;;;6.55;50.20;102585.50;10256707;28;20074;-63
2023/02/07 15:17:32;;;;;;;9.15;4.80;;;;;;;6.62;50.39;102582.47;10271402;28;20295;-62
2023/02/07 15:22:51;;;;;;;9.35;5.10;;;;;;;6.54;50.24;102582.94;10261922;28;20075;-63
2023/02/07 15:28:19;;;;;;;12.25;4.70;;;;;;;6.55;50.12;102576.63;10254698;28;20465;-64
2023/02/07 15:33:35;;;;;;;9.68;4.70;;;;;;;6.52;49.52;102580.34;10255259;28;20142;-62
2023/02/07 15:38:36;;;;;;;10.50;4.72;;;;;;;6.56;49.25;102575.69;10262239;28;20054;-62
2023/02/07 15:43:59;;;;;;;8.48;4.88;;;;;;;6.59;49.78;102571.94;10264996;28;20149;-63
2023/02/07 15:49:00;;;;;;;9.55;4.38;;;;;;;6.59;50.02;102574.63;10266835;28;20206;-64
2023/02/07 15:54:02;;;;;;;11.00;5.13;;;;;;;6.58;49.60;102568.44;10270747;28;20059;-63
2023/02/07 15:59:09;;;;;;;8.00;4.60;;;;;;;6.52;49.70;102569.66;10273297;28;20055;-64
2023/02/07 16:04:11;;;;;;;8.00;4.32;;;;;;;6.48;50.11;102564.63;10262955;28;20070;-66
2023/02/07 16:09:34;;;;;;;8.45;3.90;;;;;;;6.42;50.04;102568.50;10256057;28;20051;-64
2023/02/07 16:14:39;;;;;;;8.30;5.03;;;;;;;6.37;49.43;102570.59;10253604;28;20059;-61
2023/02/07 16:19:45;;;;;;;13.93;5.85;;;;;;;6.27;49.88;102582.78;10254651;28;20048;-62
2023/02/07 16:24:48;;;;;;;11.88;5.70;;;;;;;6.15;50.07;102576.38;10293319;28;20035;-61
2023/02/07 16:29:50;;;;;;;12.60;6.55;;;;;;;6.04;50.04;102581.50;10260657;28;20054;-62
2023/02/07 16:34:51;;;;;;;19.83;8.13;;;;;;;5.94;50.59;102584.69;10252538;28;20384;-61
2023/02/07 16:40:00;;;;;;;15.50;7.85;;;;;;;5.84;50.84;102594.16;10230977;28;20075;-62
2023/02/07 16:45:02;;;;;;;14.98;7.28;;;;;;;5.69;51.04;102595.94;10249403;28;20111;-63
2023/02/07 16:50:06;;;;;;;11.00;5.82;;;;;;;5.51;51.49;102599.63;10261764;28;20059;-62
2023/02/07 16:55:07;;;;;;;10.73;5.43;;;;;;;5.36;51.76;102602.22;10257872;28;20114;-64
2023/02/07 17:00:14;;;;;;;16.73;7.95;;;;;;;5.18;51.65;102611.28;10252441;28;20059;-63
2023/02/07 17:05:17;;;;;;;20.63;9.40;;;;;;;5.01;51.93;102612.19;10260296;28;20495;-64
2023/02/07 17:10:26;;;;;;;17.48;8.50;;;;;;;4.85;52.21;102608.63;10252220;28;20051;-62
2023/02/07 17:15:27;;;;;;;15.63;8.48;;;;;;;4.80;52.27;102616.00;10269901;28;20055;-62
2023/02/07 17:20:31;;;;;;;13.23;7.50;;;;;;;4.73;52.23;102619.00;10260849;28;20059;-58
2023/02/07 17:25:33;;;;;;;10.45;6.28;;;;;;;4.60;52.39;102617.06;10243845;28;20054;-60
2023/02/07 17:30:38;;;;;;;11.90;6.20;;;;;;;4.48;52.47;102616.78;10244986;28;20066;-59
2023/02/07 17:35:40;;;;;;;13.38;6.40;;;;;;;4.32;53.01;102622.03;10262674;28;20057;-61
2023/02/07 17:40:41;;;;;;;13.18;6.32;;;;;;;4.07;53.00;102624.22;10254545;28;20055;-59
2023/02/07 17:45:42;;;;;;;12.63;6.15;;;;;;;4.00;52.78;102625.47;10244914;28;20047;-59
2023/02/07 17:50:44;;;;;;;14.07;6.55;;;;;;;3.96;52.80;102630.09;10254832;28;20977;-62
2023/02/07 17:55:45;;;;;;;11.48;5.30;;;;;;;3.92;52.84;102633.84;10248317;28;20055;-60
2023/02/07 18:00:47;;;;;;;16.27;6.22;;;;;;;3.82;52.77;102632.59;10248146;28;20071;-59
2023/02/07 18:05:48;;;;;;;12.77;6.70;;;;;;;3.74;53.00;102625.81;10217960;28;20051;-59
2023/02/07 18:10:49;;;;;;;19.58;8.95;;;;;;;3.69;53.32;102630.53;10255425;28;20047;-59
2023/02/07 18:15:51;;;;;;;20.55;8.70;;;;;;;3.59;53.72;102629.22;10242626;28;20062;-58
2023/02/07 18:20:53;;;;;;;18.15;9.20;;;;;;;3.45;54.69;102621.91;10277855;28;20046;-63
2023/02/07 18:25:54;;;;;;;17.55;8.65;;;;;;;3.34;54.69;102624.25;10245866;28;20073;-63
2023/02/07 18:30:56;;;;;;;13.43;7.45;;;;;;;3.21;54.63;102639.88;10275738;28;20123;-62
2023/02/07 18:35:57;;;;;;;17.05;7.38;;;;;;;3.13;55.38;102629.63;10286187;28;20050;-63
2023/02/07 18:40:59;;;;;;;20.65;8.25;;;;;;;2.97;55.29;102633.91;10274668;28;20035;-62
2023/02/07 18:46:09;;;;;;;15.52;7.97;;;;;;;2.83;56.22;102639.84;10266821;28;20050;-63
2023/02/07 18:51:13;;;;;;;16.65;8.77;;;;;;;2.81;55.66;102644.38;10270082;28;20078;-63
2023/02/07 18:56:18;;;;;;;22.15;8.57;;;;;;;2.74;56.50;102646.44;10276243;28;20039;-63
2023/02/07 19:01:20;;;;;;;18.65;10.23;;;;;;;2.72;56.63;102645.63;10279494;28;20198;-63
2023/02/07 19:06:26;;;;;;;20.75;8.20;;;;;;;2.69;56.54;102647.59;10250245;28;20043;-64
2023/02/07 19:11:27;;;;;;;16.50;7.72;;;;;;;2.66;56.78;102645.91;10258341;28;20050;-61
2023/02/07 19:16:29;;;;;;;20.80;7.72;;;;;;;2.66;56.47;102645.91;10275400;28;20051;-62
2023/02/07 19:21:30;;;;;;;15.13;8.32;;;;;;;2.66;56.39;102651.22;10285785;28;20047;-61
2023/02/07 19:26:32;;;;;;;18.35;8.93;;;;;;;2.61;56.60;102641.72;10276979;28;20054;-63
2023/02/07 19:31:36;;;;;;;17.52;7.80;;;;;;;2.56;57.38;102645.44;10283894;28;20059;-62
2023/02/07 19:36:38;;;;;;;14.95;8.90;;;;;;;2.53;56.92;102639.44;10270000;28;20099;-62
2023/02/07 19:41:39;;;;;;;19.98;9.65;;;;;;;2.51;57.25;102650.13;10269904;28;20478;-63
2023/02/07 19:46:42;;;;;;;16.15;10.25;;;;;;;2.50;57.66;102643.06;10269121;28;20043;-63
2023/02/07 19:51:44;;;;;;;18.33;9.15;;;;;;;2.48;58.28;102652.03;10257062;28;20051;-64
2023/02/07 19:56:48;;;;;;;22.50;10.07;;;;;;;2.47;57.70;102653.84;10262367;28;20055;-64
2023/02/07 20:01:49;;;;;;;26.42;12.98;;;;;;;2.45;58.50;102655.69;10260881;28;20082;-64
2023/02/07 20:06:51;;;;;;;20.17;9.90;;;;;;;2.41;58.09;102654.09;10258026;28;20136;-63
2023/02/07 20:11:53;;;;;;;19.40;10.48;;;;;;;2.36;58.81;102653.41;10277552;28;20063;-63
2023/02/07 20:16:55;;;;;;;17.45;8.52;;;;;;;2.20;58.95;102662.97;10268628;28;20083;-62
2023/02/07 20:21:56;;;;;;;20.95;9.70;;;;;;;2.17;59.68;102664.81;10255474;28;20048;-63
2023/02/07 20:26:57;;;;;;;20.15;10.30;;;;;;;2.17;59.20;102666.59;10246855;28;20042;-63
2023/02/07 20:31:59;;;;;;;24.63;11.90;;;;;;;1.97;59.59;102664.75;10249229;28;20081;-64
2023/02/07 20:37:00;;;;;;;19.95;10.88;;;;;;;1.91;59.95;102673.84;10240534;28;20086;-62
2023/02/07 20:42:02;;;;;;;23.67;11.30;;;;;;;1.93;60.18;102671.97;10272728;28;20051;-63
2023/02/07 20:47:04;;;;;;;23.00;10.98;;;;;;;1.92;60.13;102662.31;10247832;28;20047;-63
2023/02/07 20:52:05;;;;;;;19.55;10.00;;;;;;;1.88;60.34;102673.13;10265305;28;20058;-63
2023/02/07 20:57:07;;;;;;;24.13;10.50;;;;;;;1.85;59.79;102674.09;10277116;28;20050;-62
2023/02/07 21:02:09;;;;;;;34.47;13.57;;;;;;;1.78;60.09;102684.09;10283849;28;20106;-63
2023/02/07 21:07:11;;;;;;;38.85;14.10;;;;;;;1.70;59.78;102680.88;10269106;28;20047;-61
2023/02/07 21:12:12;;;;;;;32.38;13.45;;;;;;;1.62;60.33;102674.13;10287205;28;20047;-62
2023/02/07 21:17:14;;;;;;;62.03;21.67;;;;;;;1.63;60.16;102666.13;10289517;28;20043;-63
2023/02/07 21:22:15;;;;;;;34.58;14.52;;;;;;;1.62;60.24;102671.47;10284292;28;20054;-62
2023/02/07 21:27:17;;;;;;;18.83;10.65;;;;;;;1.53;60.29;102676.22;10278001;28;20059;-61
2023/02/07 21:32:18;;;;;;;33.80;14.05;;;;;;;1.40;60.90;102664.38;10282444;28;20503;-61
2023/02/07 21:37:19;;;;;;;29.42;14.57;;;;;;;1.39;60.58;102660.84;10269753;28;20107;-62
2023/02/07 21:42:21;;;;;;;30.65;12.30;;;;;;;1.32;60.71;102662.03;10254468;28;20503;-61
2023/02/07 21:47:23;;;;;;;29.75;13.02;;;;;;;1.26;61.77;102664.91;10260221;28;20047;-62
2023/02/07 21:52:24;;;;;;;21.13;10.75;;;;;;;1.25;61.42;102657.88;10254293;28;20059;-62
2023/02/07 21:57:25;;;;;;;22.15;11.75;;;;;;;1.23;61.19;102662.38;10270884;28;20058;-63
2023/02/07 22:02:27;;;;;;;24.27;10.88;;;;;;;1.16;61.87;102666.16;10266449;28;20063;-60
2023/02/07 22:07:28;;;;;;;24.05;12.30;;;;;;;1.11;62.13;102670.78;10261276;28;20047;-62
2023/02/07 22:12:29;;;;;;;28.08;11.02;;;;;;;1.00;61.88;102655.28;10263823;28;20051;-61
2023/02/07 22:17:31;;;;;;;15.40;8.90;;;;;;;0.98;61.94;102644.75;10243713;28;20098;-62
2023/02/07 22:22:32;;;;;;;23.35;9.77;;;;;;;1.01;61.98;102645.56;10261368;28;20082;-62
2023/02/07 22:27:34;;;;;;;23.50;10.30;;;;;;;0.94;61.98;102651.06;10224077;28;20051;-61
2023/02/07 22:32:35;;;;;;;17.33;8.88;;;;;;;0.94;61.82;102643.13;10256042;28;20047;-62
2023/02/07 22:37:36;;;;;;;20.83;10.00;;;;;;;0.88;62.15;102632.78;10256494;28;20447;-62
2023/02/07 22:42:38;;;;;;;22.15;10.43;;;;;;;0.83;61.88;102634.75;10251019;28;20078;-63
2023/02/07 22:47:39;;;;;;;23.23;11.05;;;;;;;0.77;62.08;102638.47;10252346;28;20059;-62
2023/02/07 22:52:40;;;;;;;20.45;9.55;;;;;;;0.75;62.85;102632.38;10251668;28;20077;-63
2023/02/07 22:57:42;;;;;;;16.00;8.73;;;;;;;0.68;62.52;102630.00;10262689;28;20051;-62
2023/02/07 23:02:44;;;;;;;23.15;10.40;;;;;;;0.67;63.14;102637.09;10258562;28;20083;-62
2023/02/07 23:07:47;;;;;;;26.02;9.82;;;;;;;0.64;63.09;102628.38;10248208;28;20039;-62
2023/02/07 23:12:48;;;;;;;21.88;8.82;;;;;;;0.60;62.62;102624.97;10245775;28;20059;-62
2023/02/07 23:17:49;;;;;;;15.50;7.95;;;;;;;0.48;62.82;102622.78;10248167;28;20102;-61
2023/02/07 23:22:51;;;;;;;18.92;7.40;;;;;;;0.46;63.70;102629.91;10252057;28;20055;-62
2023/02/07 23:27:52;;;;;;;16.17;7.95;;;;;;;0.48;62.99;102634.22;10223123;28;20071;-62
2023/02/07 23:32:54;;;;;;;20.00;8.43;;;;;;;0.48;62.81;102631.56;10249383;28;20505;-62